Time;durP1;ratioP1;P1;durP2;ratioP2;P2;SDS_P1;SDS_P2;PMS_P1;PMS_P2;Temp;Humidity;BMP_temperature;BMP_pressure;BME280_temperature;BME280_humidity;BME280_pressure;Samples;Min_cycle;Max_cycle;Signal;HPM_P1;HPM_P2
2020/12/27 00:01:01;;;;;;;14.40;8.23;;;;;;;1.18;74.54;99469.39;1772067;81;21123;-60
2020/12/27 00:03:29;;;;;;;15.55;8.23;;;;;;;1.18;74.51;99463.03;1747906;81;21281;-61
2020/12/27 00:05:56;;;;;;;16.30;7.62;;;;;;;1.22;74.54;99471.69;1765458;81;21127;-60
2020/12/27 00:08:24;;;;;;;11.12;7.12;;;;;;;1.21;74.50;99459.78;1759500;81;21317;-60
2020/12/27 00:10:52;;;;;;;10.40;6.53;;;;;;;1.22;74.45;99457.71;1740929;82;21146;-60
2020/12/27 00:13:21;;;;;;;13.45;7.55;;;;;;;1.23;74.49;99458.21;1766634;80;21130;-60
2020/12/27 00:15:48;;;;;;;11.95;7.30;;;;;;;1.21;74.52;99461.05;1767794;81;21594;-60
2020/12/27 00:18:16;;;;;;;13.20;7.50;;;;;;;1.22;74.58;99462.42;1769102;81;21280;-60
2020/12/27 00:20:44;;;;;;;13.13;6.70;;;;;;;1.28;74.49;99470.78;1771158;81;21169;-59
2020/12/27 00:23:11;;;;;;;11.80;7.17;;;;;;;1.30;74.43;99471.75;1754611;81;21178;-60
2020/12/27 00:25:39;;;;;;;11.43;7.15;;;;;;;1.35;74.48;99469.06;1775433;81;21304;-60
2020/12/27 00:28:07;;;;;;;16.12;7.78;;;;;;;1.40;74.33;99469.30;1748401;81;21320;-61
2020/12/27 00:30:34;;;;;;;12.95;7.53;;;;;;;1.43;74.21;99470.36;1768069;81;21673;-60
2020/12/27 00:33:02;;;;;;;12.80;7.55;;;;;;;1.47;74.17;99465.03;1753933;81;21166;-60
2020/12/27 00:35:29;;;;;;;11.12;7.28;;;;;;;1.50;74.06;99469.01;1763393;81;21091;-60
2020/12/27 00:37:57;;;;;;;14.30;8.33;;;;;;;1.51;74.03;99470.38;1763887;80;21146;-60
2020/12/27 00:40:26;;;;;;;12.05;7.78;;;;;;;1.56;73.96;99478.27;1778736;80;21277;-60
2020/12/27 00:42:53;;;;;;;11.38;7.67;;;;;;;1.53;73.90;99479.38;1779196;81;21122;-59
2020/12/27 00:45:21;;;;;;;15.60;8.08;;;;;;;1.52;73.92;99473.38;1744722;80;21281;-60
2020/12/27 00:47:49;;;;;;;12.98;7.35;;;;;;;1.55;73.80;99473.08;1761590;80;21301;-60
2020/12/27 00:50:18;;;;;;;12.03;7.47;;;;;;;1.55;73.77;99476.89;1753430;81;21151;-59
2020/12/27 00:52:46;;;;;;;12.95;7.72;;;;;;;1.51;73.69;99482.22;1772284;81;21585;-60
2020/12/27 00:55:15;;;;;;;12.25;7.92;;;;;;;1.55;73.76;99485.80;1771333;81;21187;-60
2020/12/27 00:57:42;;;;;;;13.90;7.33;;;;;;;1.58;73.73;99492.31;1769460;81;21123;-60
2020/12/27 01:00:11;;;;;;;16.23;8.33;;;;;;;1.60;73.73;99492.88;1747965;81;21560;-60
2020/12/27 01:02:40;;;;;;;14.60;7.80;;;;;;;1.61;73.76;99489.97;1779491;80;21543;-60
2020/12/27 01:05:28;;;;;;;13.95;7.75;;;;;;;1.62;73.72;99485.34;1783756;80;21194;-60
2020/12/27 01:07:57;;;;;;;12.80;7.00;;;;;;;1.59;73.43;99480.10;1780903;80;21711;-60
2020/12/27 01:10:25;;;;;;;12.68;7.45;;;;;;;1.52;73.58;99477.20;1764840;80;21142;-60
2020/12/27 01:12:53;;;;;;;13.95;7.67;;;;;;;1.45;73.58;99471.70;1779732;80;21162;-60
2020/12/27 01:15:21;;;;;;;11.38;7.22;;;;;;;1.36;73.82;99473.34;1773916;80;21320;-59
2020/12/27 01:17:57;;;;;;;11.28;6.92;;;;;;;1.30;73.96;99473.02;1750136;80;21142;-60
2020/12/27 01:20:26;;;;;;;13.15;7.42;;;;;;;1.28;74.20;99481.82;1757464;80;21323;-61
2020/12/27 01:22:54;;;;;;;13.72;7.22;;;;;;;1.30;74.38;99472.62;1777028;80;21174;-60
2020/12/27 01:25:23;;;;;;;11.90;7.40;;;;;;;1.31;74.32;99473.48;1762439;81;21707;-60
2020/12/27 01:27:52;;;;;;;14.15;6.42;;;;;;;1.32;74.28;99471.41;1751479;81;21308;-60
2020/12/27 01:30:19;;;;;;;14.80;6.87;;;;;;;1.32;74.16;99472.69;1784966;80;21315;-60
2020/12/27 01:32:49;;;;;;;10.70;6.62;;;;;;;1.28;74.45;99478.41;1776106;80;21308;-60
2020/12/27 01:35:19;;;;;;;11.22;6.50;;;;;;;1.33;74.40;99488.84;1758604;80;21593;-60
2020/12/27 01:37:47;;;;;;;14.93;6.95;;;;;;;1.36;74.38;99497.50;1787250;80;21141;-60
2020/12/27 01:40:15;;;;;;;12.75;6.90;;;;;;;1.41;74.28;99499.91;1787296;80;21157;-60
2020/12/27 01:42:43;;;;;;;10.25;6.85;;;;;;;1.45;74.23;99510.75;1787272;80;21150;-60
2020/12/27 01:45:11;;;;;;;12.85;6.95;;;;;;;1.49;74.21;99502.47;1771390;80;21169;-59
2020/12/27 01:47:57;;;;;;;11.48;7.60;;;;;;;1.56;74.16;99504.97;1756459;80;21178;-60
2020/12/27 01:50:26;;;;;;;11.60;7.47;;;;;;;1.60;74.14;99506.00;1768560;80;21139;-59
2020/12/27 01:52:53;;;;;;;11.93;6.80;;;;;;;1.63;73.97;99502.34;1773559;80;21119;-60
2020/12/27 01:55:24;;;;;;;9.65;6.62;;;;;;;1.67;73.84;99511.91;1785626;80;21671;-60
2020/12/27 01:57:59;;;;;;;12.43;7.12;;;;;;;1.69;73.69;99517.97;1774710;80;21600;-61
2020/12/27 02:00:27;;;;;;;11.73;6.70;;;;;;;1.72;73.53;99519.00;1756539;80;21208;-59
2020/12/27 02:03:15;;;;;;;10.65;6.33;;;;;;;1.75;73.47;99517.02;1718026;81;21751;-60
2020/12/27 02:05:50;;;;;;;9.98;6.20;;;;;;;1.79;73.43;99518.95;1775942;80;21158;-60
2020/12/27 02:08:19;;;;;;;11.15;6.20;;;;;;;1.83;73.29;99523.43;1764314;80;21147;-59
2020/12/27 02:10:56;;;;;;;11.83;5.75;;;;;;;1.89;73.12;99523.75;1769778;80;21127;-60
2020/12/27 02:13:24;;;;;;;10.72;6.17;;;;;;;1.90;72.90;99524.22;1781715;80;21296;-61
2020/12/27 02:15:52;;;;;;;10.20;5.80;;;;;;;1.90;72.83;99524.22;1753118;82;21315;-60
2020/12/27 02:18:33;;;;;;;10.18;6.25;;;;;;;1.91;72.77;99527.26;1676693;85;21206;-60
2020/12/27 02:21:02;;;;;;;13.32;6.12;;;;;;;1.93;72.49;99526.95;1743405;80;21142;-60
2020/12/27 02:23:30;;;;;;;12.13;5.45;;;;;;;1.88;72.59;99530.02;1763098;80;21134;-60
2020/12/27 02:26:09;;;;;;;13.43;5.90;;;;;;;1.83;72.60;99529.79;1777285;80;21237;-60
2020/12/27 02:28:41;;;;;;;10.18;5.70;;;;;;;1.83;72.59;99536.52;1769926;80;21193;-60
2020/12/27 02:31:11;;;;;;;8.68;5.50;;;;;;;1.83;72.51;99541.23;1754335;80;21284;-60
2020/12/27 02:33:41;;;;;;;11.03;6.15;;;;;;;1.81;72.53;99539.00;1752635;82;21186;-60
2020/12/27 02:36:12;;;;;;;9.98;6.20;;;;;;;1.77;72.50;99540.89;1779355;80;21301;-60
2020/12/27 02:38:41;;;;;;;12.40;6.37;;;;;;;1.74;72.63;99545.81;1759429;80;21663;-60
2020/12/27 02:41:21;;;;;;;8.88;4.78;;;;;;;1.66;72.77;99550.48;1767306;80;21130;-60
2020/12/27 02:43:51;;;;;;;10.48;5.78;;;;;;;1.58;73.10;99554.64;1718931;82;21353;-60
2020/12/27 02:46:24;;;;;;;10.63;5.87;;;;;;;1.59;73.16;99558.95;1774849;80;21161;-61
2020/12/27 02:49:03;;;;;;;9.28;5.53;;;;;;;1.59;73.29;99561.50;1760629;80;21614;-60
2020/12/27 02:51:31;;;;;;;11.97;5.75;;;;;;;1.64;73.37;99561.36;1751519;82;21186;-60
2020/12/27 02:53:59;;;;;;;10.32;6.12;;;;;;;1.67;73.21;99566.61;1756447;80;21380;-60
2020/12/27 02:56:29;;;;;;;11.12;5.60;;;;;;;1.70;73.23;99570.59;1738798;82;21264;-61
2020/12/27 02:59:02;;;;;;;10.23;5.75;;;;;;;1.75;73.23;99576.81;1731093;82;21336;-61
2020/12/27 03:01:31;;;;;;;10.08;6.67;;;;;;;1.78;73.19;99582.10;1761069;80;21102;-60
2020/12/27 03:04:12;;;;;;;10.50;5.40;;;;;;;1.82;73.15;99589.09;1665288;82;21622;-60
2020/12/27 03:06:42;;;;;;;11.43;5.65;;;;;;;1.87;72.86;99594.04;1717998;83;21148;-60
2020/12/27 03:09:15;;;;;;;12.37;5.53;;;;;;;1.90;72.80;99589.11;1688196;85;21158;-60
2020/12/27 03:11:44;;;;;;;9.83;5.37;;;;;;;1.93;72.85;99589.31;1743546;82;21231;-60
2020/12/27 03:14:13;;;;;;;11.50;5.97;;;;;;;1.97;72.84;99585.66;1750609;81;21150;-60
2020/12/27 03:16:49;;;;;;;10.40;5.83;;;;;;;2.00;72.78;99588.36;1684350;83;21292;-60
2020/12/27 03:19:21;;;;;;;9.98;5.50;;;;;;;1.99;72.59;99599.34;1730368;82;21576;-60
2020/12/27 03:21:51;;;;;;;9.33;5.72;;;;;;;1.99;72.59;99600.22;1750175;82;21158;-61
2020/12/27 03:24:26;;;;;;;10.08;5.33;;;;;;;2.02;72.59;99595.28;1726458;82;21198;-60
2020/12/27 03:26:54;;;;;;;9.90;5.83;;;;;;;2.08;72.59;99599.83;1722519;83;21304;-60
2020/12/27 03:29:21;;;;;;;9.28;5.80;;;;;;;2.09;72.43;99599.92;1720159;82;21288;-60
2020/12/27 03:31:49;;;;;;;8.83;5.20;;;;;;;2.11;72.22;99588.53;1743507;82;21312;-61
2020/12/27 03:34:20;;;;;;;10.00;5.55;;;;;;;2.09;72.18;99597.37;1753023;82;21150;-60
2020/12/27 03:36:48;;;;;;;10.03;6.12;;;;;;;2.08;72.09;99598.55;1730306;81;21173;-60
2020/12/27 03:39:32;;;;;;;10.55;6.30;;;;;;;2.08;72.16;99606.19;1614828;88;21231;-60
2020/12/27 03:42:12;;;;;;;9.18;5.08;;;;;;;2.13;72.20;99604.78;1814713;77;22159;-60
2020/12/27 03:44:43;;;;;;;11.85;6.33;;;;;;;2.11;72.14;99612.72;1771676;80;21126;-61
2020/12/27 03:47:30;;;;;;;11.12;6.20;;;;;;;2.12;72.14;99614.49;1778786;80;21734;-60
2020/12/27 03:50:04;;;;;;;10.55;5.67;;;;;;;2.13;72.08;99617.50;1713152;83;21635;-60
2020/12/27 03:52:34;;;;;;;11.73;6.53;;;;;;;2.18;71.95;99625.00;1727179;82;21288;-60
2020/12/27 03:55:10;;;;;;;10.98;6.40;;;;;;;2.22;71.86;99628.61;1695806;82;21633;-61
2020/12/27 03:57:39;;;;;;;12.30;7.25;;;;;;;2.23;71.82;99625.26;1667509;83;21598;-60
2020/12/27 04:00:09;;;;;;;13.32;6.87;;;;;;;2.24;71.81;99626.63;1717713;83;21585;-61
2020/12/27 04:02:47;;;;;;;14.87;7.35;;;;;;;2.27;71.78;99630.61;1719256;82;21335;-60
2020/12/27 04:05:16;;;;;;;11.05;5.97;;;;;;;2.28;71.79;99631.07;1731550;82;21568;-60
2020/12/27 04:07:44;;;;;;;15.00;6.75;;;;;;;2.30;71.73;99636.27;1735410;81;21160;-60
2020/12/27 04:10:15;;;;;;;11.10;6.10;;;;;;;2.30;71.57;99637.13;1720479;83;21122;-60
2020/12/27 04:12:43;;;;;;;13.45;6.95;;;;;;;2.30;71.60;99647.32;1727978;82;21170;-61
2020/12/27 04:15:11;;;;;;;12.80;7.05;;;;;;;2.29;71.53;99640.48;1728450;82;21306;-60
2020/12/27 04:17:40;;;;;;;13.70;7.20;;;;;;;2.30;71.50;99640.08;1728585;82;21630;-60
2020/12/27 04:20:08;;;;;;;10.68;5.58;;;;;;;2.32;71.47;99634.28;1704134;83;21192;-60
2020/12/27 04:22:36;;;;;;;11.03;5.70;;;;;;;2.29;71.31;99637.94;1729969;82;21192;-61
2020/12/27 04:25:05;;;;;;;11.00;6.30;;;;;;;2.27;71.33;99635.70;1719739;82;21208;-59
2020/12/27 04:27:33;;;;;;;12.03;6.25;;;;;;;2.23;71.43;99640.13;1734730;82;21164;-60
2020/12/27 04:30:01;;;;;;;10.55;6.05;;;;;;;2.24;71.47;99646.09;1716030;83;21166;-60
2020/12/27 04:32:30;;;;;;;9.58;5.97;;;;;;;2.26;71.56;99655.57;1707313;83;21549;-60
2020/12/27 04:35:06;;;;;;;9.70;5.67;;;;;;;2.27;71.71;99650.98;1711262;83;21162;-61
2020/12/27 04:37:35;;;;;;;9.08;5.75;;;;;;;2.32;71.63;99649.56;1750717;82;21159;-59
2020/12/27 04:40:16;;;;;;;15.93;7.65;;;;;;;2.36;71.60;99652.73;1723832;82;21145;-60
2020/12/27 04:42:51;;;;;;;12.00;6.53;;;;;;;2.39;71.48;99658.02;1727660;82;21509;-61
2020/12/27 04:45:24;;;;;;;13.55;6.62;;;;;;;2.39;71.50;99660.57;1712216;83;21247;-61
2020/12/27 04:48:11;;;;;;;10.88;5.92;;;;;;;2.39;71.38;99669.48;1720130;82;21162;-59
2020/12/27 04:50:54;;;;;;;9.85;5.90;;;;;;;2.39;71.40;99659.30;1725057;82;21294;-60
2020/12/27 04:53:22;;;;;;;10.45;5.92;;;;;;;2.39;71.31;99672.03;1765533;81;21158;-60
2020/12/27 04:55:55;;;;;;;7.50;5.10;;;;;;;2.36;71.25;99674.38;1730415;82;21695;-60
2020/12/27 04:58:32;;;;;;;10.25;5.83;;;;;;;2.33;71.27;99672.08;1760905;80;21270;-60
2020/12/27 05:01:08;;;;;;;9.58;6.03;;;;;;;2.26;71.29;99674.67;1771237;80;21589;-60
2020/12/27 05:03:44;;;;;;;8.65;5.83;;;;;;;2.25;71.52;99677.16;1609084;87;21774;-61
2020/12/27 05:06:14;;;;;;;9.95;6.25;;;;;;;2.26;71.61;99672.13;1773937;81;21147;-60
2020/12/27 05:08:48;;;;;;;9.30;5.15;;;;;;;2.32;71.60;99680.13;1780988;80;21143;-59
2020/12/27 05:11:18;;;;;;;12.20;6.22;;;;;;;2.38;71.43;99680.45;1761229;80;21611;-61
2020/12/27 05:13:48;;;;;;;10.65;5.90;;;;;;;2.39;71.40;99689.86;1705075;84;21271;-61
2020/12/27 05:16:28;;;;;;;10.08;6.17;;;;;;;2.37;71.39;99688.89;1759074;81;21319;-61
2020/12/27 05:18:59;;;;;;;9.98;5.85;;;;;;;2.38;71.33;99683.40;1758918;81;21155;-61
2020/12/27 05:21:37;;;;;;;10.38;6.33;;;;;;;2.37;71.37;99683.80;1760377;80;21649;-60
2020/12/27 05:24:00;;;;;;;10.90;5.92;;;;;;;2.33;71.35;99684.41;1758226;81;21238;-60
2020/12/27 05:26:31;;;;;;;10.25;5.87;;;;;;;2.25;71.52;99693.70;1777418;79;21158;-61
2020/12/27 05:29:09;;;;;;;12.60;6.67;;;;;;;2.17;71.76;99690.73;1672482;84;21134;-61
2020/12/27 05:31:39;;;;;;;9.85;5.97;;;;;;;2.17;71.88;99690.73;1752806;81;21277;-60
2020/12/27 05:34:27;;;;;;;9.75;5.72;;;;;;;2.17;72.02;99700.52;1714446;82;21185;-59
2020/12/27 05:37:16;;;;;;;10.95;6.20;;;;;;;2.18;72.00;99700.11;1748649;81;21146;-44
2020/12/27 05:40:05;;;;;;;10.23;6.20;;;;;;;2.19;72.32;99701.89;1710431;84;21609;-61
2020/12/27 05:42:41;;;;;;;10.48;5.97;;;;;;;2.17;72.61;99707.28;1738247;81;21316;-59
2020/12/27 05:45:16;;;;;;;12.20;6.05;;;;;;;2.17;72.52;99712.37;1764254;81;21184;-60
2020/12/27 05:47:47;;;;;;;12.95;6.42;;;;;;;2.22;72.49;99727.92;1767378;81;21307;-60
2020/12/27 05:50:18;;;;;;;10.40;6.53;;;;;;;2.23;72.51;99722.02;1767339;81;21146;-60
2020/12/27 05:52:49;;;;;;;14.47;8.40;;;;;;;2.26;72.41;99726.01;1717672;81;21142;-60
2020/12/27 05:55:21;;;;;;;17.05;8.83;;;;;;;2.26;72.27;99740.02;1764880;81;21143;-60
2020/12/27 05:57:55;;;;;;;14.95;8.10;;;;;;;2.26;72.30;99748.92;1762048;81;21315;-60
2020/12/27 06:00:25;;;;;;;17.35;9.93;;;;;;;2.26;72.37;99746.38;1764686;81;21628;-60
2020/12/27 06:03:01;;;;;;;21.95;9.68;;;;;;;2.28;72.22;99748.22;1739150;81;21577;-60
2020/12/27 06:05:45;;;;;;;15.00;9.38;;;;;;;2.27;72.26;99760.48;1759662;81;21281;-59
2020/12/27 06:08:35;;;;;;;17.05;9.05;;;;;;;2.31;72.18;99763.67;1752181;81;21738;-61
2020/12/27 06:11:22;;;;;;;17.35;9.48;;;;;;;2.32;72.09;99760.34;1678866;85;21627;-60
2020/12/27 06:14:38;;;;;;;17.75;9.95;;;;;;;2.30;72.11;99766.15;1698431;83;21174;-60
2020/12/27 06:17:33;;;;;;;21.65;11.00;;;;;;;2.29;72.33;99764.37;1706843;83;21147;-60
2020/12/27 06:20:10;;;;;;;22.20;12.45;;;;;;;2.43;72.32;99777.91;1838883;77;22190;-61
2020/12/27 06:22:44;;;;;;;27.85;13.40;;;;;;;2.38;72.22;99782.33;1806797;78;21565;-61
2020/12/27 06:25:19;;;;;;;30.75;16.57;;;;;;;2.39;72.25;99787.92;1792186;80;21153;-61
2020/12/27 06:27:48;;;;;;;30.90;16.60;;;;;;;2.39;72.32;99795.57;1806390;78;21292;-61
2020/12/27 06:30:20;;;;;;;33.35;17.52;;;;;;;2.44;72.22;99801.30;1793795;78;21573;-61
2020/12/27 06:33:14;;;;;;;31.25;15.78;;;;;;;2.39;72.32;99804.48;1793714;78;21513;-62
2020/12/27 06:35:46;;;;;;;27.20;15.65;;;;;;;2.36;72.50;99810.66;1795261;78;21142;-61
2020/12/27 06:38:20;;;;;;;29.18;15.80;;;;;;;2.37;72.57;99816.66;1733657;81;21344;-61
2020/12/27 06:41:06;;;;;;;30.32;13.72;;;;;;;2.37;72.63;99821.34;1772033;80;21268;-61
2020/12/27 06:43:53;;;;;;;26.48;13.93;;;;;;;2.37;72.74;99817.52;1767679;80;21188;-60
2020/12/27 06:46:28;;;;;;;22.32;12.18;;;;;;;2.37;72.88;99825.16;1758060;81;21351;-61
2020/12/27 06:49:13;;;;;;;20.60;11.12;;;;;;;2.41;72.87;99832.58;1761842;80;21148;-60
2020/12/27 06:52:20;;;;;;;21.75;12.85;;;;;;;2.43;72.78;99825.03;1758830;81;21164;-61
2020/12/27 06:55:06;;;;;;;18.95;12.05;;;;;;;2.41;72.87;99826.61;1750397;81;21295;-60
2020/12/27 06:57:45;;;;;;;24.30;13.35;;;;;;;2.41;72.91;99824.06;1731242;81;21155;-60
2020/12/27 07:00:26;;;;;;;22.48;12.90;;;;;;;2.43;72.92;99826.30;1726531;82;21178;-61
2020/12/27 07:03:19;;;;;;;26.90;13.32;;;;;;;2.42;72.96;99830.89;1737181;82;21711;-60
2020/12/27 07:05:49;;;;;;;27.52;14.25;;;;;;;2.38;73.12;99830.73;1737351;82;21186;-60
2020/12/27 07:08:38;;;;;;;21.97;12.78;;;;;;;2.37;73.30;99835.35;1749938;81;21620;-60
2020/12/27 07:11:07;;;;;;;20.80;12.18;;;;;;;2.37;73.40;99832.80;1737537;82;21281;-61
2020/12/27 07:13:48;;;;;;;20.00;11.33;;;;;;;2.39;73.48;99824.86;1737355;82;21138;-60
2020/12/27 07:16:17;;;;;;;19.55;11.20;;;;;;;2.39;73.46;99826.50;1737551;82;21182;-60
2020/12/27 07:18:50;;;;;;;17.17;9.60;;;;;;;2.38;73.54;99829.86;1731674;82;21302;-60
2020/12/27 07:21:22;;;;;;;15.80;9.43;;;;;;;2.39;73.68;99831.23;1780105;79;21118;-61
2020/12/27 07:24:06;;;;;;;16.20;9.93;;;;;;;2.41;73.65;99832.97;1794481;79;21153;-60
2020/12/27 07:27:08;;;;;;;17.92;10.20;;;;;;;2.46;73.73;99836.66;1813478;77;22653;-58
2020/12/27 07:29:36;;;;;;;19.70;10.38;;;;;;;2.39;73.77;99843.06;1786144;79;21212;-59
2020/12/27 07:32:05;;;;;;;17.37;10.60;;;;;;;2.38;73.91;99850.23;1788260;78;21167;-60
2020/12/27 07:34:33;;;;;;;16.95;10.50;;;;;;;2.41;73.85;99850.80;1797761;78;21165;-59
2020/12/27 07:37:05;;;;;;;21.30;11.05;;;;;;;2.43;73.92;99847.95;1790500;80;21176;-59
2020/12/27 07:39:54;;;;;;;23.27;11.25;;;;;;;2.45;73.88;99851.48;1789723;80;21185;-59
2020/12/27 07:42:31;;;;;;;23.80;11.25;;;;;;;2.48;73.88;99850.38;1789381;78;21347;-60
2020/12/27 07:45:13;;;;;;;20.27;11.65;;;;;;;2.53;73.75;99847.69;1731883;81;21181;-62
2020/12/27 07:47:41;;;;;;;23.70;13.00;;;;;;;2.54;73.77;99853.25;1742933;81;21168;-62
2020/12/27 07:50:15;;;;;;;23.52;12.95;;;;;;;2.59;73.68;99850.58;1748427;81;21176;-62
2020/12/27 07:53:00;;;;;;;23.83;14.07;;;;;;;2.61;73.62;99851.14;1748070;81;21314;-61
2020/12/27 07:55:38;;;;;;;24.30;13.45;;;;;;;2.65;73.54;99847.52;1752314;81;21349;-62
2020/12/27 07:58:07;;;;;;;22.25;12.78;;;;;;;2.66;73.44;99849.27;1738317;81;21718;-62
2020/12/27 08:00:39;;;;;;;24.30;11.15;;;;;;;2.69;73.42;99849.03;1761597;81;21169;-58
2020/12/27 08:03:08;;;;;;;19.30;11.65;;;;;;;2.72;73.20;99857.24;1722374;81;21149;-58
2020/12/27 08:05:37;;;;;;;20.12;12.63;;;;;;;2.71;73.22;99865.69;1729428;82;21322;-59
2020/12/27 08:08:07;;;;;;;23.00;13.08;;;;;;;2.72;73.31;99872.53;1728630;82;21313;-59
2020/12/27 08:10:35;;;;;;;17.90;11.10;;;;;;;2.76;73.21;99876.63;1735894;81;21343;-60
2020/12/27 08:13:06;;;;;;;21.12;13.10;;;;;;;2.76;73.12;99879.17;1728839;81;21295;-58
2020/12/27 08:15:41;;;;;;;18.32;12.13;;;;;;;2.77;73.06;99888.96;1743532;81;21188;-57
2020/12/27 08:18:12;;;;;;;20.23;11.83;;;;;;;2.76;73.04;99883.00;1741135;81;21166;-56
2020/12/27 08:20:50;;;;;;;22.90;13.00;;;;;;;2.77;73.04;99889.87;1735951;81;21138;-59
2020/12/27 08:23:19;;;;;;;20.65;11.30;;;;;;;2.79;73.04;99890.81;1742439;81;21183;-59
2020/12/27 08:25:57;;;;;;;17.10;10.63;;;;;;;2.79;72.82;99899.73;1747031;81;21624;-60
2020/12/27 08:28:25;;;;;;;22.02;12.23;;;;;;;2.79;72.75;99902.28;1734729;81;21823;-60
2020/12/27 08:30:53;;;;;;;22.85;12.25;;;;;;;2.80;72.71;99910.42;1747464;81;22146;-60
2020/12/27 08:33:21;;;;;;;18.67;10.48;;;;;;;2.78;72.67;99904.36;1743726;81;21109;-59
2020/12/27 08:35:52;;;;;;;18.23;11.08;;;;;;;2.80;72.61;99911.70;1731616;81;21142;-59
2020/12/27 08:38:42;;;;;;;17.85;10.82;;;;;;;2.83;72.58;99907.17;1723922;81;22092;-59
2020/12/27 08:41:26;;;;;;;20.23;12.30;;;;;;;2.88;72.49;99898.52;1729838;81;21157;-59
2020/12/27 08:44:27;;;;;;;21.33;11.78;;;;;;;2.91;72.51;99898.69;1725349;81;21287;-57
2020/12/27 08:46:59;;;;;;;21.37;11.45;;;;;;;2.97;72.34;99900.29;1750347;80;21217;-58
2020/12/27 08:49:41;;;;;;;20.55;11.70;;;;;;;3.00;72.26;99903.00;1759904;80;21145;-56
2020/12/27 08:52:24;;;;;;;21.07;11.85;;;;;;;3.02;72.20;99892.50;1736870;81;21233;-62
2020/12/27 08:54:59;;;;;;;20.25;12.23;;;;;;;3.06;72.00;99894.84;1730086;81;21146;-61
2020/12/27 08:57:28;;;;;;;19.92;12.45;;;;;;;3.08;71.87;99891.59;1744676;81;21220;-61
2020/12/27 09:00:13;;;;;;;22.22;13.50;;;;;;;3.14;72.00;99890.64;1754133;80;21521;-62
2020/12/27 09:02:41;;;;;;;20.37;11.63;;;;;;;3.25;71.67;99886.99;1724563;81;21768;-62
2020/12/27 09:05:14;;;;;;;18.85;11.43;;;;;;;3.38;71.67;99874.50;1745154;81;21762;-61
2020/12/27 09:07:45;;;;;;;18.25;10.90;;;;;;;3.62;71.47;99874.95;1739545;81;21619;-61
2020/12/27 09:10:24;;;;;;;14.63;9.43;;;;;;;3.92;70.97;99873.55;1730678;82;21686;-61
2020/12/27 09:13:06;;;;;;;18.77;10.60;;;;;;;4.27;70.01;99870.22;1736348;81;21157;-61
2020/12/27 09:15:48;;;;;;;;;;;;;;;4.59;69.29;99859.86;1746233;81;21166;-61
2020/12/27 09:18:30;;;;;;;17.77;9.80;;;;;;;4.78;68.25;99858.66;1706360;82;20196;-61
2020/12/27 09:21:07;;;;;;;20.10;11.73;;;;;;;4.94;67.67;99865.41;1748395;81;21175;-62
2020/12/27 09:23:35;;;;;;;21.65;11.20;;;;;;;5.05;66.66;99862.08;1738422;81;21334;-61
2020/12/27 09:26:13;;;;;;;25.32;14.07;;;;;;;5.02;66.30;99867.05;1734497;81;21350;-61
2020/12/27 09:28:41;;;;;;;24.80;13.78;;;;;;;4.88;65.80;99871.48;1740056;81;21156;-68
2020/12/27 09:31:13;;;;;;;25.10;13.50;;;;;;;4.73;66.38;99871.62;1738743;81;21552;-70
2020/12/27 09:33:47;;;;;;;25.68;15.45;;;;;;;4.79;66.29;99865.55;1743811;81;21145;-61
2020/12/27 09:36:17;;;;;;;24.18;12.13;;;;;;;4.87;66.12;99869.75;1765718;80;21242;-61
2020/12/27 09:38:47;;;;;;;23.32;13.48;;;;;;;4.94;66.15;99866.69;1730098;81;21174;-61
2020/12/27 09:41:20;;;;;;;21.93;13.08;;;;;;;5.05;65.81;99864.64;1746519;81;21571;-61
2020/12/27 09:43:58;;;;;;;19.12;10.88;;;;;;;5.16;65.58;99863.03;1734133;81;21684;-63
2020/12/27 09:46:49;;;;;;;23.57;12.82;;;;;;;5.18;64.38;99867.83;1762255;80;21189;-62
2020/12/27 09:49:29;;;;;;;20.72;10.68;;;;;;;4.91;65.19;99872.53;1735956;81;21349;-62
2020/12/27 09:52:07;;;;;;;22.15;11.73;;;;;;;4.99;65.01;99886.97;1730558;81;21283;-62
2020/12/27 09:54:37;;;;;;;20.10;10.68;;;;;;;4.94;64.56;99880.34;1722873;81;21206;-63
2020/12/27 09:57:19;;;;;;;18.57;10.93;;;;;;;4.77;64.89;99877.38;1726204;81;21739;-63
2020/12/27 09:59:52;;;;;;;17.20;10.35;;;;;;;4.70;65.34;99874.03;1736456;81;21795;-62
2020/12/27 10:02:21;;;;;;;18.23;10.72;;;;;;;4.66;65.19;99875.58;1732067;81;21283;-63
2020/12/27 10:04:49;;;;;;;18.05;11.70;;;;;;;4.43;65.92;99875.72;1723219;81;21218;-59
2020/12/27 10:07:17;;;;;;;23.47;10.95;;;;;;;4.25;65.95;99878.23;1768744;80;21253;-59
2020/12/27 10:09:45;;;;;;;19.85;12.55;;;;;;;3.90;66.75;99887.91;1760019;80;21275;-59
2020/12/27 10:12:13;;;;;;;19.37;11.40;;;;;;;3.85;67.41;99886.78;1757129;80;21773;-60
2020/12/27 10:14:41;;;;;;;17.87;10.80;;;;;;;3.80;67.88;99883.98;1767430;80;21185;-60
2020/12/27 10:17:10;;;;;;;20.35;10.80;;;;;;;3.74;67.94;99885.33;1763016;80;21380;-70
2020/12/27 10:19:38;;;;;;;18.40;10.70;;;;;;;3.77;67.44;99875.30;1759829;81;21177;-63
2020/12/27 10:22:06;;;;;;;18.50;9.43;;;;;;;3.58;66.91;99885.78;1719919;82;21312;-71
2020/12/27 10:24:33;;;;;;;16.50;10.28;;;;;;;3.43;66.67;99879.86;1743196;81;21174;-72
2020/12/27 10:27:06;;;;;;;19.95;10.10;;;;;;;3.38;66.83;99876.19;1732194;82;21174;-69
2020/12/27 10:29:35;;;;;;;15.83;8.33;;;;;;;3.40;67.22;99877.15;1749337;80;21165;-68
2020/12/27 10:32:06;;;;;;;11.25;6.53;;;;;;;3.46;66.67;99878.74;1721882;82;21186;-71
2020/12/27 10:34:35;;;;;;;15.25;9.33;;;;;;;3.45;65.46;99875.73;1721658;81;21170;-71
2020/12/27 10:37:05;;;;;;;7.95;4.35;;;;;;;3.41;65.97;99872.14;1730229;81;21777;-67
2020/12/27 10:39:33;;;;;;;6.12;3.15;;;;;;;3.49;62.57;99863.63;1758118;80;21299;-71
2020/12/27 10:42:01;;;;;;;10.40;5.53;;;;;;;3.46;61.47;99857.96;1747612;80;21737;-70
2020/12/27 10:44:28;;;;;;;16.17;7.83;;;;;;;3.42;62.10;99864.95;1710976;83;21218;-68
2020/12/27 10:46:57;;;;;;;7.33;3.35;;;;;;;3.28;62.68;99858.63;1742488;81;21911;-70
2020/12/27 10:49:24;;;;;;;10.63;4.50;;;;;;;3.20;60.41;99861.63;1681184;81;21844;-69
2020/12/27 10:51:53;;;;;;;8.95;4.35;;;;;;;3.25;60.48;99858.93;1709396;81;21916;-72
2020/12/27 10:54:20;;;;;;;9.95;4.50;;;;;;;3.19;60.68;99856.06;1705069;82;21168;-69
2020/12/27 10:56:49;;;;;;;9.65;5.80;;;;;;;3.11;61.19;99854.77;1701656;82;21330;-71
2020/12/27 10:59:16;;;;;;;8.08;4.67;;;;;;;3.07;62.11;99849.41;1624253;81;21186;-71
2020/12/27 11:01:53;;;;;;;11.05;5.92;;;;;;;2.92;62.62;99854.53;1762577;81;21300;-70
2020/12/27 11:04:19;;;;;;;10.58;5.17;;;;;;;2.77;63.38;99847.81;1735523;81;21358;-71
2020/12/27 11:06:47;;;;;;;10.80;6.40;;;;;;;2.76;63.77;99847.31;1731128;81;21161;-72
2020/12/27 11:09:15;;;;;;;11.73;6.30;;;;;;;2.89;63.93;99842.91;1754095;81;21139;-72
2020/12/27 11:11:43;;;;;;;15.63;7.75;;;;;;;3.04;63.77;99836.09;1756619;81;21319;-72
2020/12/27 11:14:11;;;;;;;15.32;8.43;;;;;;;3.15;63.46;99840.09;1749379;81;21714;-72
2020/12/27 11:16:39;;;;;;;13.15;7.58;;;;;;;3.26;63.34;99841.98;1746126;81;21174;-71
2020/12/27 11:19:07;;;;;;;16.85;9.30;;;;;;;3.38;63.16;99837.51;1715723;82;21686;-68
2020/12/27 11:21:35;;;;;;;14.68;5.65;;;;;;;3.55;62.95;99837.14;1738678;81;21194;-69
2020/12/27 11:24:02;;;;;;;10.55;6.28;;;;;;;3.55;61.31;99842.25;1721468;81;21563;-68
2020/12/27 11:26:30;;;;;;;8.18;5.17;;;;;;;3.39;61.71;99847.34;1729573;81;21304;-67
2020/12/27 11:28:57;;;;;;;8.40;4.28;;;;;;;3.40;61.44;99845.26;1732528;82;21787;-68
2020/12/27 11:31:25;;;;;;;8.53;3.98;;;;;;;3.43;60.99;99850.11;1718051;82;21171;-65
2020/12/27 11:33:53;;;;;;;9.63;4.25;;;;;;;3.45;60.48;99854.03;1739192;81;21585;-67
2020/12/27 11:36:20;;;;;;;6.50;3.60;;;;;;;3.30;60.28;99861.73;1718098;81;21826;-65
2020/12/27 11:38:47;;;;;;;7.90;4.70;;;;;;;3.22;59.65;99849.84;1754858;81;21190;-67
2020/12/27 11:41:16;;;;;;;8.08;4.30;;;;;;;3.12;60.18;99855.64;1749975;81;21338;-70
2020/12/27 11:43:44;;;;;;;9.65;4.72;;;;;;;3.12;60.65;99856.92;1765605;80;21159;-66
2020/12/27 11:46:12;;;;;;;10.58;5.20;;;;;;;3.17;60.81;99853.81;1746726;81;21743;-69
2020/12/27 11:48:40;;;;;;;8.43;5.28;;;;;;;3.20;60.67;99855.25;1755357;81;21173;-68
2020/12/27 11:51:08;;;;;;;7.72;4.72;;;;;;;3.00;60.91;99849.09;1723069;82;21577;-66
2020/12/27 11:53:37;;;;;;;8.68;4.50;;;;;;;2.92;61.07;99860.91;1752601;80;21257;-68
2020/12/27 11:56:05;;;;;;;7.90;4.65;;;;;;;2.81;61.04;99851.00;1751779;81;21177;-69
2020/12/27 11:58:33;;;;;;;7.60;4.33;;;;;;;2.78;61.27;99845.73;1717111;82;21539;-69